Time;durP1;ratioP1;P1;durP2;ratioP2;P2;SDS_P1;SDS_P2;PMS_P1;PMS_P2;Temp;Humidity;BMP_temperature;BMP_pressure;BME280_temperature;BME280_humidity;BME280_pressure;Samples;Min_cycle;Max_cycle;Signal;HPM_P1;HPM_P2
2023/08/04 00:02:21;;;;;;;;;;;;;;;;;;5011013;28;20280;-63
2023/08/04 00:04:47;;;;;;;;;;;;;;;;;;5010128;28;19955;-61
2023/08/04 00:07:12;;;;;;;;;;;;;;;;;;5004552;28;19913;-61
2023/08/04 00:09:38;;;;;;;;;;;;;;;;;;5011985;28;20376;-62
2023/08/04 00:12:04;;;;;;;;;;;;;;;;;;4994283;28;19956;-64
2023/08/04 00:14:30;;;;;;;;;;;;;;;;;;5011535;28;20017;-61
2023/08/04 00:16:56;;;;;;;;;;;;;;;;;;4993105;28;19953;-61
2023/08/04 00:19:22;;;;;;;;;;;;;;;;;;5007790;28;20008;-61
2023/08/04 00:21:48;;;;;;;;;;;;;;;;;;5010802;28;19918;-61
2023/08/04 00:24:14;;;;;;;;;;;;;;;;;;5011617;28;20392;-65
2023/08/04 00:26:40;;;;;;;;;;;;;;;;;;5010977;28;20405;-66
2023/08/04 00:29:06;;;;;;;;;;;;;;;;;;5014890;28;19969;-66
2023/08/04 00:31:32;;;;;;;;;;;;;;;;;;5014007;28;19998;-66
2023/08/04 00:33:58;;;;;;;;;;;;;;;;;;5016132;28;20420;-66
2023/08/04 00:36:24;;;;;;;;;;;;;;;;;;5014198;28;19920;-66
2023/08/04 00:38:49;;;;;;;;;;;;;;;;;;5015096;28;19914;-66
2023/08/04 00:41:15;;;;;;;;;;;;;;;;;;5012241;28;19964;-66
2023/08/04 00:43:41;;;;;;;;;;;;;;;;;;5014604;28;19913;-66
2023/08/04 00:46:07;;;;;;;;;;;;;;;;;;4996490;28;19921;-66
2023/08/04 00:48:33;;;;;;;;;;;;;;;;;;5014708;28;19969;-65
2023/08/04 00:50:59;;;;;;;;;;;;;;;;;;5013821;28;20359;-66
2023/08/04 00:53:25;;;;;;;;;;;;;;;;;;5012493;28;19953;-66
2023/08/04 00:55:51;;;;;;;;;;;;;;;;;;5015478;28;19945;-66
2023/08/04 00:58:17;;;;;;;;;;;;;;;;;;5014899;28;20316;-66
2023/08/04 01:00:43;;;;;;;;;;;;;;;;;;5013622;28;19913;-67
2023/08/04 01:03:08;;;;;;;;;;;;;;;;;;5015008;28;20280;-61
2023/08/04 01:05:34;;;;;;;;;;;;;;;;;;5015120;28;19964;-62
2023/08/04 01:08:00;;;;;;;;;;;;;;;;;;5014310;28;19921;-63
2023/08/04 01:10:26;;;;;;;;;;;;;;;;;;5013651;28;19913;-62
2023/08/04 01:12:52;;;;;;;;;;;;;;;;;;5014144;28;19925;-61
2023/08/04 01:15:18;;;;;;;;;;;;;;;;;;5014357;28;20376;-61
2023/08/04 01:17:44;;;;;;;;;;;;;;;;;;5015395;28;20304;-63
2023/08/04 01:20:10;;;;;;;;;;;;;;;;;;5011291;28;19967;-62
2023/08/04 01:22:36;;;;;;;;;;;;;;;;;;5014900;28;19913;-61
2023/08/04 01:25:02;;;;;;;;;;;;;;;;;;5014876;28;20428;-61
2023/08/04 01:27:28;;;;;;;;;;;;;;;;;;5014433;28;19920;-62
2023/08/04 01:29:54;;;;;;;;;;;;;;;;;;5013552;28;19949;-62
2023/08/04 01:32:20;;;;;;;;;;;;;;;;;;5013954;28;19961;-59
2023/08/04 01:34:49;;;;;;;;;;;;;;;;;;5014921;28;20309;-63
2023/08/04 01:37:15;;;;;;;;;;;;;;;;;;5013761;28;19920;-62
2023/08/04 01:39:41;;;;;;;;;;;;;;;;;;5014539;28;19913;-63
2023/08/04 01:42:07;;;;;;;;;;;;;;;;;;5014866;28;20352;-62
2023/08/04 01:44:34;;;;;;;;;;;;;;;;;;5014902;28;20000;-62
2023/08/04 01:46:59;;;;;;;;;;;;;;;;;;5013787;28;19999;-61
2023/08/04 01:49:25;;;;;;;;;;;;;;;;;;5013345;28;20393;-62
2023/08/04 01:51:51;;;;;;;;;;;;;;;;;;5013789;28;19959;-61
2023/08/04 01:54:17;;;;;;;;;;;;;;;;;;5013070;28;20613;-62
2023/08/04 01:56:43;;;;;;;;;;;;;;;;;;5014820;28;19909;-61
2023/08/04 01:59:09;;;;;;;;;;;;;;;;;;5014494;28;19977;-61
2023/08/04 02:01:35;;;;;;;;;;;;;;;;;;5013712;28;20000;-62
2023/08/04 02:04:01;;;;;;;;;;;;;;;;;;5014325;28;19918;-62
2023/08/04 02:06:27;;;;;;;;;;;;;;;;;;5014281;28;19965;-61
2023/08/04 02:08:53;;;;;;;;;;;;;;;;;;5010806;28;20635;-62
2023/08/04 02:11:18;;;;;;;;;;;;;;;;;;5013540;28;19913;-62
2023/08/04 02:13:44;;;;;;;;;;;;;;;;;;5024643;28;19917;-62
2023/08/04 02:16:10;;;;;;;;;;;;;;;;;;5011340;28;19960;-65
2023/08/04 02:18:36;;;;;;;;;;;;;;;;;;4995806;28;19918;-65
2023/08/04 02:21:02;;;;;;;;;;;;;;;;;;5011241;28;19928;-65
2023/08/04 02:23:28;;;;;;;;;;;;;;;;;;5012949;28;19945;-65
2023/08/04 02:25:54;;;;;;;;;;;;;;;;;;5012398;28;19968;-65
2023/08/04 02:28:20;;;;;;;;;;;;;;;;;;5012997;28;19920;-65
2023/08/04 02:30:46;;;;;;;;;;;;;;;;;;5013463;28;19917;-65
2023/08/04 02:33:11;;;;;;;;;;;;;;;;;;5013837;28;19914;-64
2023/08/04 02:35:37;;;;;;;;;;;;;;;;;;5013828;28;20008;-64
2023/08/04 02:38:03;;;;;;;;;;;;;;;;;;5013486;28;19952;-64
2023/08/04 02:40:29;;;;;;;;;;;;;;;;;;5011272;28;19967;-64
2023/08/04 02:42:56;;;;;;;;;;;;;;;;;;5013712;28;20004;-64
2023/08/04 02:45:22;;;;;;;;;;;;;;;;;;5013295;28;19917;-64
2023/08/04 02:47:47;;;;;;;;;;;;;;;;;;5013423;28;19918;-64
2023/08/04 02:50:13;;;;;;;;;;;;;;;;;;5012971;28;20407;-64
2023/08/04 02:52:39;;;;;;;;;;;;;;;;;;5013272;28;19976;-65
2023/08/04 02:55:05;;;;;;;;;;;;;;;;;;4996079;28;19925;-65
2023/08/04 02:57:33;;;;;;;;;;;;;;;;;;5012683;28;19948;-65
2023/08/04 02:59:59;;;;;;;;;;;;;;;;;;5013215;28;20329;-65
2023/08/04 03:02:25;;;;;;;;;;;;;;;;;;5012889;28;20017;-64
2023/08/04 03:04:51;;;;;;;;;;;;;;;;;;5013401;28;19909;-64
2023/08/04 03:07:16;;;;;;;;;;;;;;;;;;5012999;28;20637;-64
2023/08/04 03:09:42;;;;;;;;;;;;;;;;;;5012568;28;19920;-64
2023/08/04 03:12:08;;;;;;;;;;;;;;;;;;5012061;28;20000;-64
2023/08/04 03:14:34;;;;;;;;;;;;;;;;;;5013035;28;19914;-64
2023/08/04 03:17:00;;;;;;;;;;;;;;;;;;5011557;28;19963;-64
2023/08/04 03:19:26;;;;;;;;;;;;;;;;;;5013026;28;20012;-65
2023/08/04 03:21:52;;;;;;;;;;;;;;;;;;5011642;28;19924;-65
2023/08/04 03:24:18;;;;;;;;;;;;;;;;;;4995178;28;19953;-61
2023/08/04 03:26:44;;;;;;;;;;;;;;;;;;5012848;28;19969;-61
2023/08/04 03:29:10;;;;;;;;;;;;;;;;;;5012958;28;19935;-61
2023/08/04 03:31:36;;;;;;;;;;;;;;;;;;5009742;28;19913;-61
2023/08/04 03:34:02;;;;;;;;;;;;;;;;;;5012182;28;19987;-61
2023/08/04 03:36:27;;;;;;;;;;;;;;;;;;5010398;28;19960;-62
2023/08/04 03:38:53;;;;;;;;;;;;;;;;;;5012194;28;19963;-61
2023/08/04 03:41:19;;;;;;;;;;;;;;;;;;5010734;28;20025;-61
2023/08/04 03:43:45;;;;;;;;;;;;;;;;;;5011913;28;19914;-61
2023/08/04 03:46:11;;;;;;;;;;;;;;;;;;5011945;28;19921;-61
2023/08/04 03:48:37;;;;;;;;;;;;;;;;;;5010705;28;20122;-61
2023/08/04 03:51:03;;;;;;;;;;;;;;;;;;5010105;28;19917;-61
2023/08/04 03:53:29;;;;;;;;;;;;;;;;;;5011840;28;20428;-62
2023/08/04 03:55:55;;;;;;;;;;;;;;;;;;5011832;28;19979;-61
2023/08/04 03:58:21;;;;;;;;;;;;;;;;;;5011810;28;19920;-61
2023/08/04 04:00:47;;;;;;;;;;;;;;;;;;5010502;28;20280;-61
2023/08/04 04:03:12;;;;;;;;;;;;;;;;;;5003733;28;19917;-61
2023/08/04 04:05:38;;;;;;;;;;;;;;;;;;5009544;28;19976;-63
2023/08/04 04:08:04;;;;;;;;;;;;;;;;;;5011238;28;20020;-61
2023/08/04 04:10:30;;;;;;;;;;;;;;;;;;5010730;28;19938;-61
2023/08/04 04:12:56;;;;;;;;;;;;;;;;;;5010154;28;20385;-61
2023/08/04 04:15:22;;;;;;;;;;;;;;;;;;5011232;28;19960;-61
2023/08/04 04:17:48;;;;;;;;;;;;;;;;;;5011136;28;19964;-61
2023/08/04 04:20:14;;;;;;;;;;;;;;;;;;5010460;28;20427;-61
2023/08/04 04:22:40;;;;;;;;;;;;;;;;;;5009468;28;19920;-61
2023/08/04 04:25:05;;;;;;;;;;;;;;;;;;5009801;28;20258;-61
2023/08/04 04:27:31;;;;;;;;;;;;;;;;;;5009818;28;19980;-61
2023/08/04 04:29:57;;;;;;;;;;;;;;;;;;5005463;28;19974;-61
2023/08/04 04:32:23;;;;;;;;;;;;;;;;;;5007085;28;19984;-63
2023/08/04 04:34:49;;;;;;;;;;;;;;;;;;5009600;28;20362;-65
2023/08/04 04:37:15;;;;;;;;;;;;;;;;;;5011134;28;19975;-65
2023/08/04 04:39:41;;;;;;;;;;;;;;;;;;5009747;28;19914;-65
2023/08/04 04:42:07;;;;;;;;;;;;;;;;;;5010581;28;19914;-65
2023/08/04 04:44:33;;;;;;;;;;;;;;;;;;5010969;28;19914;-65
2023/08/04 04:46:59;;;;;;;;;;;;;;;;;;5009743;28;20007;-65
2023/08/04 04:49:25;;;;;;;;;;;;;;;;;;4991442;28;20318;-65
2023/08/04 04:51:50;;;;;;;;;;;;;;;;;;5009671;28;19967;-65
2023/08/04 04:54:16;;;;;;;;;;;;;;;;;;5010406;28;20651;-65
2023/08/04 04:56:42;;;;;;;;;;;;;;;;;;5010749;28;19967;-65
2023/08/04 04:59:08;;;;;;;;;;;;;;;;;;4999187;28;20583;-65
2023/08/04 05:01:34;;;;;;;;;;;;;;;;;;5005356;28;19941;-65
2023/08/04 05:04:00;;;;;;;;;;;;;;;;;;4991145;28;19918;-65
2023/08/04 05:06:26;;;;;;;;;;;;;;;;;;5010059;28;19961;-65
2023/08/04 05:08:52;;;;;;;;;;;;;;;;;;5010677;28;19996;-65
2023/08/04 05:11:19;;;;;;;;;;;;;;;;;;5009129;28;22588;-65
2023/08/04 05:13:46;;;;;;;;;;;;;;;;;;5011782;28;19944;-65
2023/08/04 05:16:11;;;;;;;;;;;;;;;;;;4992854;28;19938;-65
2023/08/04 05:18:37;;;;;;;;;;;;;;;;;;5009520;28;19967;-65
2023/08/04 05:21:03;;;;;;;;;;;;;;;;;;4995269;28;20016;-65
2023/08/04 05:23:29;;;;;;;;;;;;;;;;;;5013561;28;19917;-64
2023/08/04 05:25:55;;;;;;;;;;;;;;;;;;5011240;28;20463;-64
2023/08/04 05:28:21;;;;;;;;;;;;;;;;;;5011193;28;19971;-65
2023/08/04 05:30:47;;;;;;;;;;;;;;;;;;5011492;28;20230;-65
2023/08/04 05:33:13;;;;;;;;;;;;;;;;;;5014137;28;19925;-65
2023/08/04 05:35:40;;;;;;;;;;;;;;;;;;5010512;28;19957;-65
2023/08/04 05:38:06;;;;;;;;;;;;;;;;;;5013264;28;19962;-65
2023/08/04 05:40:32;;;;;;;;;;;;;;;;;;5011835;28;20349;-64
2023/08/04 05:42:58;;;;;;;;;;;;;;;;;;5012209;28;20016;-65
2023/08/04 05:45:24;;;;;;;;;;;;;;;;;;4995205;28;19922;-66
2023/08/04 05:47:50;;;;;;;;;;;;;;;;;;5007057;28;19957;-66
2023/08/04 05:50:16;;;;;;;;;;;;;;;;;;5011782;28;20333;-65
2023/08/04 05:52:42;;;;;;;;;;;;;;;;;;5007283;28;19913;-66
2023/08/04 05:55:08;;;;;;;;;;;;;;;;;;5012148;28;19967;-66
2023/08/04 05:57:34;;;;;;;;;;;;;;;;;;5010539;28;19982;-65
2023/08/04 06:00:00;;;;;;;;;;;;;;;;;;5007961;28;19987;-66
2023/08/04 06:02:25;;;;;;;;;;;;;;;;;;5013261;28;19910;-66
2023/08/04 06:04:52;;;;;;;;;;;;;;;;;;5009850;28;19952;-66
2023/08/04 06:07:18;;;;;;;;;;;;;;;;;;5011841;28;19964;-66
2023/08/04 06:09:44;;;;;;;;;;;;;;;;;;4999256;28;19956;-65
2023/08/04 06:12:10;;;;;;;;;;;;;;;;;;5007547;28;20016;-65
2023/08/04 06:14:36;;;;;;;;;;;;;;;;;;5011005;28;19968;-66
2023/08/04 06:17:02;;;;;;;;;;;;;;;;;;5015486;28;20416;-65
2023/08/04 06:19:28;;;;;;;;;;;;;;;;;;5012514;28;20010;-66
2023/08/04 06:21:54;;;;;;;;;;;;;;;;;;5007567;28;20295;-66
2023/08/04 06:24:19;;;;;;;;;;;;;;;;;;5011943;28;19920;-65
2023/08/04 06:26:45;;;;;;;;;;;;;;;;;;5008901;28;19961;-66
2023/08/04 06:29:11;;;;;;;;;;;;;;;;;;5008445;28;20004;-66
2023/08/04 06:31:37;;;;;;;;;;;;;;;;;;5014203;28;19917;-66
2023/08/04 06:34:03;;;;;;;;;;;;;;;;;;5012684;28;20459;-66
2023/08/04 06:36:29;;;;;;;;;;;;;;;;;;5020488;28;19913;-66
2023/08/04 06:38:55;;;;;;;;;;;;;;;;;;5014324;28;19914;-66
2023/08/04 06:41:21;;;;;;;;;;;;;;;;;;5011571;28;19988;-66
2023/08/04 06:43:47;;;;;;;;;;;;;;;;;;5010806;28;20377;-66
2023/08/04 06:46:12;;;;;;;;;;;;;;;;;;5009987;28;19923;-66
2023/08/04 06:48:38;;;;;;;;;;;;;;;;;;5012633;28;19971;-66
2023/08/04 06:51:04;;;;;;;;;;;;;;;;;;5010651;28;19932;-66
2023/08/04 06:53:30;;;;;;;;;;;;;;;;;;5016827;28;20021;-66
2023/08/04 06:55:56;;;;;;;;;;;;;;;;;;5013474;28;20033;-65
2023/08/04 06:58:22;;;;;;;;;;;;;;;;;;5013539;28;19992;-65
2023/08/04 07:00:48;;;;;;;;;;;;;;;;;;5010680;28;19979;-65
2023/08/04 07:03:14;;;;;;;;;;;;;;;;;;5011431;28;20377;-65
2023/08/04 07:05:40;;;;;;;;;;;;;;;;;;4993842;28;19917;-65
2023/08/04 07:08:06;;;;;;;;;;;;;;;;;;5016233;28;20277;-65
2023/08/04 07:10:32;;;;;;;;;;;;;;;;;;5011820;28;19928;-65
2023/08/04 07:12:58;;;;;;;;;;;;;;;;;;5011137;28;19928;-65
2023/08/04 07:15:24;;;;;;;;;;;;;;;;;;5017553;28;19913;-65
2023/08/04 07:17:49;;;;;;;;;;;;;;;;;;5012711;28;20012;-65
2023/08/04 07:20:15;;;;;;;;;;;;;;;;;;5009778;28;20455;-65
2023/08/04 07:22:41;;;;;;;;;;;;;;;;;;5012197;28;19913;-65
2023/08/04 07:25:07;;;;;;;;;;;;;;;;;;5012063;28;19913;-65
2023/08/04 07:27:33;;;;;;;;;;;;;;;;;;5011642;28;20000;-65
2023/08/04 07:29:59;;;;;;;;;;;;;;;;;;5008846;28;20369;-65
2023/08/04 07:32:25;;;;;;;;;;;;;;;;;;5011882;28;19937;-65
2023/08/04 07:34:51;;;;;;;;;;;;;;;;;;5010223;28;20440;-65
2023/08/04 07:37:17;;;;;;;;;;;;;;;;;;5008999;28;20035;-65
2023/08/04 07:39:43;;;;;;;;;;;;;;;;;;5011169;28;20389;-65
2023/08/04 07:42:09;;;;;;;;;;;;;;;;;;5010222;28;19960;-65
2023/08/04 07:44:35;;;;;;;;;;;;;;;;;;5004059;28;19971;-65
2023/08/04 07:47:01;;;;;;;;;;;;;;;;;;5014518;28;19964;-65
2023/08/04 07:49:27;;;;;;;;;;;;;;;;;;5009863;28;19913;-64
2023/08/04 07:51:52;;;;;;;;;;;;;;;;;;5011412;28;19913;-64
2023/08/04 07:54:18;;;;;;;;;;;;;;;;;;5009144;28;19917;-64
2023/08/04 07:56:44;;;;;;;;;;;;;;;;;;5010743;28;19975;-64
2023/08/04 07:59:10;;;;;;;;;;;;;;;;;;5011117;28;19948;-64
2023/08/04 08:01:36;;;;;;;;;;;;;;;;;;5006058;28;19923;-64
2023/08/04 08:04:02;;;;;;;;;;;;;;;;;;5010951;28;20004;-66
2023/08/04 08:06:28;;;;;;;;;;;;;;;;;;5012757;28;19991;-66
2023/08/04 08:08:54;;;;;;;;;;;;;;;;;;5009430;28;19979;-66
2023/08/04 08:11:20;;;;;;;;;;;;;;;;;;5012144;28;20351;-66
2023/08/04 08:13:46;;;;;;;;;;;;;;;;;;5009519;28;19929;-66
2023/08/04 08:16:12;;;;;;;;;;;;;;;;;;5010157;28;19956;-66
2023/08/04 08:18:38;;;;;;;;;;;;;;;;;;5006554;28;19964;-66
2023/08/04 08:21:04;;;;;;;;;;;;;;;;;;5016903;28;19932;-67
2023/08/04 08:23:30;;;;;;;;;;;;;;;;;;5009989;28;19921;-66
2023/08/04 08:25:56;;;;;;;;;;;;;;;;;;5015706;28;19967;-66
2023/08/04 08:28:21;;;;;;;;;;;;;;;;;;5019553;28;19956;-67
2023/08/04 08:30:47;;;;;;;;;;;;;;;;;;5015945;28;19963;-66
2023/08/04 08:33:13;;;;;;;;;;;;;;;;;;5011443;28;19963;-67
2023/08/04 08:35:39;;;;;;;;;;;;;;;;;;5008198;28;20438;-66
2023/08/04 08:38:05;;;;;;;;;;;;;;;;;;4989408;28;20001;-67
2023/08/04 08:40:31;;;;;;;;;;;;;;;;;;5003377;28;20284;-66
2023/08/04 08:42:57;;;;;;;;;;;;;;;;;;5006671;28;19921;-67
2023/08/04 08:45:23;;;;;;;;;;;;;;;;;;5010509;28;20048;-67
2023/08/04 08:47:49;;;;;;;;;;;;;;;;;;5011125;28;19918;-67
2023/08/04 08:50:16;;;;;;;;;;;;;;;;;;5014302;28;20337;-67
2023/08/04 08:52:42;;;;;;;;;;;;;;;;;;5011992;28;20399;-66
2023/08/04 08:55:08;;;;;;;;;;;;;;;;;;5014436;28;19917;-67
2023/08/04 08:57:34;;;;;;;;;;;;;;;;;;5012833;28;20087;-67
2023/08/04 09:00:00;;;;;;;;;;;;;;;;;;5011732;28;19987;-66
2023/08/04 09:02:26;;;;;;;;;;;;;;;;;;5013755;28;20443;-67
2023/08/04 09:04:52;;;;;;;;;;;;;;;;;;5014642;28;19918;-67
2023/08/04 09:07:18;;;;;;;;;;;;;;;;;;5013342;28;19952;-66
2023/08/04 09:09:45;;;;;;;;;;;;;;;;;;5015890;28;20399;-66
2023/08/04 09:12:11;;;;;;;;;;;;;;;;;;5015280;28;19919;-67
2023/08/04 09:14:37;;;;;;;;;;;;;;;;;;5007919;28;19996;-64
2023/08/04 09:17:03;;;;;;;;;;;;;;;;;;5003498;28;19919;-64
2023/08/04 09:19:29;;;;;;;;;;;;;;;;;;5012533;28;20335;-64
2023/08/04 09:21:55;;;;;;;;;;;;;;;;;;5007500;28;20008;-64
2023/08/04 09:24:21;;;;;;;;;;;;;;;;;;5014713;28;19917;-64
2023/08/04 09:26:47;;;;;;;;;;;;;;;;;;5012372;28;19929;-65
2023/08/04 09:29:13;;;;;;;;;;;;;;;;;;5000415;28;20004;-64
2023/08/04 09:31:39;;;;;;;;;;;;;;;;;;5013109;28;19976;-64
2023/08/04 09:34:05;;;;;;;;;;;;;;;;;;5015037;28;19952;-64
2023/08/04 09:36:31;;;;;;;;;;;;;;;;;;5008509;28;20381;-65
2023/08/04 09:38:56;;;;;;;;;;;;;;;;;;5011468;28;20370;-64
2023/08/04 09:41:22;;;;;;;;;;;;;;;;;;4997445;28;20004;-64
2023/08/04 09:43:48;;;;;;;;;;;;;;;;;;5011412;28;19918;-64
2023/08/04 09:46:14;;;;;;;;;;;;;;;;;;5005853;28;19921;-64
2023/08/04 09:48:40;;;;;;;;;;;;;;;;;;5011969;28;20317;-64
2023/08/04 09:51:09;;;;;;;;;;;;;;;;;;5013114;28;19910;-64
2023/08/04 09:53:35;;;;;;;;;;;;;;;;;;5012089;28;20384;-64
2023/08/04 09:56:01;;;;;;;;;;;;;;;;;;5012021;28;20001;-64
2023/08/04 09:58:27;;;;;;;;;;;;;;;;;;5007121;28;20000;-65
2023/08/04 10:00:53;;;;;;;;;;;;;;;;;;5009440;28;20388;-64
2023/08/04 10:03:18;;;;;;;;;;;;;;;;;;5007516;28;19917;-64
2023/08/04 10:05:44;;;;;;;;;;;;;;;;;;5010590;28;19980;-65
2023/08/04 10:08:10;;;;;;;;;;;;;;;;;;5011792;28;19939;-64
2023/08/04 10:10:36;;;;;;;;;;;;;;;;;;5015590;28;19965;-64
2023/08/04 10:13:02;;;;;;;;;;;;;;;;;;5012991;28;19945;-64
2023/08/04 10:15:28;;;;;;;;;;;;;;;;;;5009500;28;19995;-64
2023/08/04 10:17:54;;;;;;;;;;;;;;;;;;4993994;28;19959;-64
2023/08/04 10:20:21;;;;;;;;;;;;;;;;;;5003087;28;19968;-65
2023/08/04 10:22:48;;;;;;;;;;;;;;;;;;5009780;28;19988;-64
2023/08/04 10:25:15;;;;;;;;;;;;;;;;;;5007567;28;19945;-62
2023/08/04 10:27:41;;;;;;;;;;;;;;;;;;5006043;28;19914;-64
2023/08/04 10:30:06;;;;;;;;;;;;;;;;;;5009457;28;20452;-63
2023/08/04 10:32:32;;;;;;;;;;;;;;;;;;5011741;28;19913;-63
2023/08/04 10:34:58;;;;;;;;;;;;;;;;;;5012847;28;19940;-62
2023/08/04 10:37:24;;;;;;;;;;;;;;;;;;5013178;28;19913;-62
2023/08/04 10:39:50;;;;;;;;;;;;;;;;;;5005920;28;19921;-63
2023/08/04 10:42:16;;;;;;;;;;;;;;;;;;5009919;28;19910;-62
2023/08/04 10:44:42;;;;;;;;;;;;;;;;;;5010131;28;20376;-62
2023/08/04 10:47:08;;;;;;;;;;;;;;;;;;5005128;28;20345;-62
2023/08/04 10:49:34;;;;;;;;;;;;;;;;;;5008697;28;19975;-62
2023/08/04 10:52:00;;;;;;;;;;;;;;;;;;4995165;28;20373;-64
2023/08/04 10:54:26;;;;;;;;;;;;;;;;;;5009943;28;19928;-63
2023/08/04 10:56:52;;;;;;;;;;;;;;;;;;5012606;28;19949;-62
2023/08/04 10:59:17;;;;;;;;;;;;;;;;;;5012100;28;19944;-62
2023/08/04 11:01:43;;;;;;;;;;;;;;;;;;5011540;28;19971;-62
2023/08/04 11:04:09;;;;;;;;;;;;;;;;;;5001633;28;20020;-63
2023/08/04 11:06:35;;;;;;;;;;;;;;;;;;4990260;28;20024;-63
2023/08/04 11:09:01;;;;;;;;;;;;;;;;;;5012331;28;19941;-62
2023/08/04 11:11:27;;;;;;;;;;;;;;;;;;5011088;28;20019;-63
2023/08/04 11:13:53;;;;;;;;;;;;;;;;;;5008806;28;20003;-63
2023/08/04 11:16:19;;;;;;;;;;;;;;;;;;5008945;28;19917;-62
2023/08/04 11:18:45;;;;;;;;;;;;;;;;;;5026389;28;19918;-62
2023/08/04 11:21:11;;;;;;;;;;;;;;;;;;5007589;28;20004;-62
2023/08/04 11:23:37;;;;;;;;;;;;;;;;;;5012039;28;19916;-62
2023/08/04 11:26:02;;;;;;;;;;;;;;;;;;5011803;28;20377;-62
2023/08/04 11:28:29;;;;;;;;;;;;;;;;;;5011116;28;19959;-62
2023/08/04 11:30:55;;;;;;;;;;;;;;;;;;5011256;28;20330;-62
2023/08/04 11:33:21;;;;;;;;;;;;;;;;;;5011629;28;19940;-62
2023/08/04 11:35:47;;;;;;;;;;;;;;;;;;4993761;28;20384;-64
2023/08/04 11:38:13;;;;;;;;;;;;;;;;;;5011820;28;19920;-64
2023/08/04 11:40:39;;;;;;;;;;;;;;;;;;5011335;28;19988;-65
2023/08/04 11:43:05;;;;;;;;;;;;;;;;;;5006518;28;19918;-64
2023/08/04 11:45:31;;;;;;;;;;;;;;;;;;5009905;28;19920;-65
2023/08/04 11:47:57;;;;;;;;;;;;;;;;;;5010362;28;20000;-64
2023/08/04 11:50:23;;;;;;;;;;;;;;;;;;5011207;28;19929;-64
2023/08/04 11:52:49;;;;;;;;;;;;;;;;;;5010980;28;19964;-65
2023/08/04 11:55:15;;;;;;;;;;;;;;;;;;5011494;28;19923;-64
2023/08/04 11:57:41;;;;;;;;;;;;;;;;;;5011406;28;19920;-64
2023/08/04 12:00:08;;;;;;;;;;;;;;;;;;5011304;28;19921;-64
2023/08/04 12:02:33;;;;;;;;;;;;;;;;;;5008200;28;19913;-65
2023/08/04 12:04:59;;;;;;;;;;;;;;;;;;5005054;28;19923;-65
2023/08/04 12:07:25;;;;;;;;;;;;;;;;;;4993781;28;20428;-64
2023/08/04 12:09:51;;;;;;;;;;;;;;;;;;5011100;28;19947;-64
2023/08/04 12:12:17;;;;;;;;;;;;;;;;;;4993711;28;19936;-64
2023/08/04 12:14:43;;;;;;;;;;;;;;;;;;5011205;28;19914;-65
2023/08/04 12:17:09;;;;;;;;;;;;;;;;;;5009706;28;19922;-64
2023/08/04 12:19:35;;;;;;;;;;;;;;;;;;5011144;28;20357;-64
2023/08/04 12:22:03;;;;;;;;;;;;;;;;;;5006468;28;20320;-64
2023/08/04 12:24:29;;;;;;;;;;;;;;;;;;5013951;28;19925;-65
2023/08/04 12:26:55;;;;;;;;;;;;;;;;;;5014088;28;19979;-65
2023/08/04 12:29:21;;;;;;;;;;;;;;;;;;5013072;28;19921;-65
2023/08/04 12:31:47;;;;;;;;;;;;;;;;;;5011824;28;19957;-65
2023/08/04 12:34:13;;;;;;;;;;;;;;;;;;4994211;28;20001;-65
2023/08/04 12:36:39;;;;;;;;;;;;;;;;;;5011481;28;20372;-64
2023/08/04 12:39:05;;;;;;;;;;;;;;;;;;5010393;28;19917;-65
2023/08/04 12:41:31;;;;;;;;;;;;;;;;;;5013411;28;20015;-65
2023/08/04 12:43:57;;;;;;;;;;;;;;;;;;5012122;28;19949;-65
2023/08/04 12:46:23;;;;;;;;;;;;;;;;;;5009958;28;19926;-70
2023/08/04 12:48:49;;;;;;;;;;;;;;;;;;5011473;28;20374;-71
2023/08/04 12:51:15;;;;;;;;;;;;;;;;;;5014465;28;20357;-67
2023/08/04 12:53:41;;;;;;;;;;;;;;;;;;4997141;28;20041;-70
2023/08/04 12:56:07;;;;;;;;;;;;;;;;;;4996115;28;19924;-70
2023/08/04 12:58:33;;;;;;;;;;;;;;;;;;4995160;28;20008;-69
2023/08/04 13:00:59;;;;;;;;;;;;;;;;;;5010937;28;19960;-68
2023/08/04 13:03:25;;;;;;;;;;;;;;;;;;5010145;28;19957;-68
2023/08/04 13:05:51;;;;;;;;;;;;;;;;;;5011135;28;19964;-69
2023/08/04 13:08:17;;;;;;;;;;;;;;;;;;5012734;28;19917;-68
2023/08/04 13:10:43;;;;;;;;;;;;;;;;;;5008581;28;20387;-69
2023/08/04 13:13:08;;;;;;;;;;;;;;;;;;5011880;28;20017;-71
2023/08/04 13:15:34;;;;;;;;;;;;;;;;;;5012023;28;20470;-70
2023/08/04 13:18:00;;;;;;;;;;;;;;;;;;5006422;28;19917;-70
2023/08/04 13:20:26;;;;;;;;;;;;;;;;;;5005913;28;20305;-71
2023/08/04 13:22:52;;;;;;;;;;;;;;;;;;5011037;28;19941;-70
2023/08/04 13:25:18;;;;;;;;;;;;;;;;;;5009075;28;19918;-72
2023/08/04 13:27:44;;;;;;;;;;;;;;;;;;4991747;28;19916;-72
2023/08/04 13:30:10;;;;;;;;;;;;;;;;;;5008324;28;20329;-72
2023/08/04 13:32:36;;;;;;;;;;;;;;;;;;5009418;28;20000;-72
2023/08/04 13:35:02;;;;;;;;;;;;;;;;;;4993612;28;20009;-72
2023/08/04 13:37:28;;;;;;;;;;;;;;;;;;5011893;28;19944;-71
2023/08/04 13:39:54;;;;;;;;;;;;;;;;;;5013788;28;20274;-73
2023/08/04 13:42:20;;;;;;;;;;;;;;;;;;4994411;28;19916;-72
2023/08/04 13:44:46;;;;;;;;;;;;;;;;;;5014151;28;19913;-72
2023/08/04 13:47:12;;;;;;;;;;;;;;;;;;5013515;28;20011;-72
2023/08/04 13:49:38;;;;;;;;;;;;;;;;;;5013588;28;19917;-72
2023/08/04 13:52:04;;;;;;;;;;;;;;;;;;5011993;28;20000;-70
2023/08/04 13:54:30;;;;;;;;;;;;;;;;;;5013795;28;20388;-63
2023/08/04 13:56:55;;;;;;;;;;;;;;;;;;4995937;28;19936;-64
2023/08/04 13:59:21;;;;;;;;;;;;;;;;;;5012007;28;19921;-64
2023/08/04 14:01:47;;;;;;;;;;;;;;;;;;5008862;28;19956;-64
2023/08/04 14:04:14;;;;;;;;;;;;;;;;;;5013589;28;19968;-64
2023/08/04 14:06:40;;;;;;;;;;;;;;;;;;5012953;28;19926;-64
2023/08/04 14:09:06;;;;;;;;;;;;;;;;;;5013635;28;19920;-64
2023/08/04 14:11:32;;;;;;;;;;;;;;;;;;5013041;28;20315;-64
2023/08/04 14:13:58;;;;;;;;;;;;;;;;;;5013500;28;20012;-64
2023/08/04 14:16:23;;;;;;;;;;;;;;;;;;5008732;28;19959;-63
2023/08/04 14:18:49;;;;;;;;;;;;;;;;;;5010469;28;20443;-64
2023/08/04 14:21:15;;;;;;;;;;;;;;;;;;4989009;28;19977;-64
2023/08/04 14:23:41;;;;;;;;;;;;;;;;;;5010268;28;19963;-64
2023/08/04 14:26:07;;;;;;;;;;;;;;;;;;5010174;28;20452;-63
2023/08/04 14:28:33;;;;;;;;;;;;;;;;;;5008774;28;19945;-63
2023/08/04 14:30:59;;;;;;;;;;;;;;;;;;5006739;28;19924;-63
2023/08/04 14:33:25;;;;;;;;;;;;;;;;;;5008959;28;20011;-64
2023/08/04 14:35:51;;;;;;;;;;;;;;;;;;4988020;28;19980;-64
2023/08/04 14:38:17;;;;;;;;;;;;;;;;;;5006492;28;20426;-64
2023/08/04 14:40:43;;;;;;;;;;;;;;;;;;5007309;28;19949;-64
2023/08/04 14:43:09;;;;;;;;;;;;;;;;;;5012034;28;20280;-65
2023/08/04 14:45:35;;;;;;;;;;;;;;;;;;5009185;28;20313;-64
2023/08/04 14:48:01;;;;;;;;;;;;;;;;;;5010170;28;20015;-64
2023/08/04 14:50:27;;;;;;;;;;;;;;;;;;5008727;28;19914;-64
2023/08/04 14:52:52;;;;;;;;;;;;;;;;;;5010008;28;20323;-65
2023/08/04 14:55:18;;;;;;;;;;;;;;;;;;5003157;28;20029;-64
2023/08/04 14:57:44;;;;;;;;;;;;;;;;;;5008043;28;19913;-63
2023/08/04 15:00:10;;;;;;;;;;;;;;;;;;4997741;28;20048;-63
2023/08/04 15:02:36;;;;;;;;;;;;;;;;;;5009804;28;19920;-64
2023/08/04 15:05:02;;;;;;;;;;;;;;;;;;5010149;28;20319;-67
2023/08/04 15:07:28;;;;;;;;;;;;;;;;;;5009895;28;20004;-67
2023/08/04 15:09:54;;;;;;;;;;;;;;;;;;5008902;28;20005;-67
2023/08/04 15:12:20;;;;;;;;;;;;;;;;;;5000318;28;19981;-66
2023/08/04 15:14:46;;;;;;;;;;;;;;;;;;5009856;28;19961;-69
2023/08/04 15:17:12;;;;;;;;;;;;;;;;;;5008901;28;19996;-66
2023/08/04 15:19:41;;;;;;;;;;;;;;;;;;5008917;28;19957;-66
2023/08/04 15:22:10;;;;;;;;;;;;;;;;;;5002920;28;19917;-69
2023/08/04 15:24:37;;;;;;;;;;;;;;;;;;5006990;28;19961;-67
2023/08/04 15:27:03;;;;;;;;;;;;;;;;;;5008327;28;20037;-66
2023/08/04 15:29:28;;;;;;;;;;;;;;;;;;5011211;28;20001;-67
2023/08/04 15:31:54;;;;;;;;;;;;;;;;;;5011741;28;20301;-67
2023/08/04 15:34:20;;;;;;;;;;;;;;;;;;5011551;28;19979;-69
2023/08/04 15:36:46;;;;;;;;;;;;;;;;;;5007400;28;20508;-69
2023/08/04 15:39:12;;;;;;;;;;;;;;;;;;5009584;28;19917;-69
2023/08/04 15:41:38;;;;;;;;;;;;;;;;;;5009589;28;19917;-71
2023/08/04 15:44:04;;;;;;;;;;;;;;;;;;5010302;28;19952;-69
2023/08/04 15:46:30;;;;;;;;;;;;;;;;;;5010529;28;19917;-70
2023/08/04 15:48:56;;;;;;;;;;;;;;;;;;5009448;28;20645;-69
2023/08/04 15:51:21;;;;;;;;;;;;;;;;;;5009419;28;20032;-69
2023/08/04 15:53:47;;;;;;;;;;;;;;;;;;5009278;28;19918;-69
2023/08/04 15:56:13;;;;;;;;;;;;;;;;;;5009270;28;20385;-69
2023/08/04 15:58:39;;;;;;;;;;;;;;;;;;5007231;28;19927;-68
2023/08/04 16:01:05;;;;;;;;;;;;;;;;;;5010525;28;19947;-69
2023/08/04 16:03:31;;;;;;;;;;;;;;;;;;5011195;28;19932;-69
2023/08/04 16:05:57;;;;;;;;;;;;;;;;;;5007611;28;19918;-69
2023/08/04 16:08:25;;;;;;;;;;;;;;;;;;5012853;28;19979;-69
2023/08/04 16:10:51;;;;;;;;;;;;;;;;;;5008374;28;19952;-69
2023/08/04 16:13:17;;;;;;;;;;;;;;;;;;5009070;28;19963;-70
2023/08/04 16:15:43;;;;;;;;;;;;;;;;;;5007016;28;20408;-68
2023/08/04 16:18:09;;;;;;;;;;;;;;;;;;4980697;28;19922;-68
2023/08/04 16:20:35;;;;;;;;;;;;;;;;;;5006119;28;20380;-69
2023/08/04 16:23:01;;;;;;;;;;;;;;;;;;5006703;28;19921;-69
2023/08/04 16:25:26;;;;;;;;;;;;;;;;;;5008149;28;20059;-69
2023/08/04 16:27:52;;;;;;;;;;;;;;;;;;5006222;28;19949;-69
2023/08/04 16:30:18;;;;;;;;;;;;;;;;;;5007093;28;19909;-70
2023/08/04 16:32:44;;;;;;;;;;;;;;;;;;4989045;28;19935;-69
2023/08/04 16:35:10;;;;;;;;;;;;;;;;;;5010675;28;19953;-70
2023/08/04 16:37:36;;;;;;;;;;;;;;;;;;4993704;28;20373;-69